Lietadlo (typ, imatrikulačný znak): _________________/__________________
Meno pilota (skontroloval): ___________________________________
Podpis pilota (skontroloval): ___________________________________

Predpoveď na dnes

Slnečno, pri prechodne zväčšenej oblačnosti ojedinele prehánky alebo búrky. Naďalej veľmi teplo. Najvyššia denná teplota 30 až 35, na severe 25 až 30 st. Teplota na horách vo výške 1500 m okolo 18 st. Slabý, na západe a východe miestami prevažne severný vietor 3 až 8 m/s (10 až 30 km/h). Predpokladané množstvo zrážok: do 3, pri búrkach ojedinele okolo 10 mm

SHMÚ, OMPaV, PV 21.8.2018 11:30 LSEČ

METAR - Letisková meteo správa

Letisková meteorologická správa METAR

Meteorologické informácie z ďalších profesionálnych meteorologických staníc SHMÚ zobrazené v tvare zodpovedajúcom pravidlám kódovania správ METAR sú uvedené v položke „METSYN Informácie o správe METAR

21.08.2018 - 13:30 UTC

METAR LZIB 211330Z 33011KT CAVOK 31/13 Q1017 NOSIG=
 METAR LZKZ 211330Z 01012KT CAVOK 29/16 Q1017 NOSIG=
 METAR LZPP 211330Z 33013KT 300V360 CAVOK 31/14 Q1017=
 METAR LZSL 211330Z VRB03KT 9999 FEW050CB SCT060 33/10 Q1016=
 METAR LZTT 211330Z 03011KT 9999 SCT043 24/16 Q1020 NOSIG=
 METAR LZZI 211330Z 03008KT 340V060 9999 FEW061 27/15 Q1018=
 

21.08.2018 - 13:00 UTC

METAR LZIB 211300Z 34012KT 300V360 CAVOK 31/14 Q1017 NOSIG=
 METAR LZKZ 211300Z 04009KT 360V070 CAVOK 29/15 Q1017 NOSIG=
 METAR LZPP 211300Z 33009KT 300V360 CAVOK 31/14 Q1017=
 METAR LZSL 211300Z VRB02KT 9999 FEW050TCU SCT060 33/11 Q1016=
 METAR LZTT 211300Z 03009KT 9999 SCT036 25/16 Q1020 NOSIG=
 METAR LZZI 211300Z 03010KT 350V070 9999 SCT061 27/15 Q1018=
 

21.08.2018 - 13:00 UTC

METAR LZMC 211300Z 36006KT CAVOK 31/10 Q1018=
 METAR LZPW 211300Z 02010KT CAVOK 27/14 Q1018=
 

TAF - Letisková predpoveď

21.08.2018 - 14:00 UTC

TAF LZSL 211400Z 2115/2200 VRB02KT 9999 FEW060
     TEMPO 2115/2117 FEW055CB SCT060
     PROB30 TEMPO 2115/2116 29010KT -TSRA SCT050CB SCT060
     BECMG 2117/2119 34008KT CAVOK=
 TAF LZPP 211400Z 2115/2200 33012KT CAVOK
     BECMG 2117/2119 01010KT=
 TAF LZZI 211400Z 2115/2200 03009KT CAVOK
     BECMG 2118/2120 VRB02KT=
 

21.08.2018 - 11:00 UTC

TAF LZIB 211100Z 2112/2212 34012KT CAVOK
     BECMG 2118/2120 03008KT
     BECMG 2209/2211 13006KT=
 TAF LZKZ 211100Z 2112/2212 01012KT CAVOK
     TEMPO 2112/2116 35015KT 9999 FEW050CB=
 TAF LZTT 211100Z 2112/2212 06008KT 9999 SCT050
     TEMPO 2112/2117 FEW045CB SCT055
     PROB40 TEMPO 2112/2116 03018KT -TSRA SCT040CB SCT050
     BECMG 2118/2120 28004KT CAVOK
     TEMPO 2202/2206 4000 BCFG SCT002
     BECMG 2207/2209 05006KT 9999 SCT035=
 

21.08.2018 - 11:00 UTC

TAF LZSL 211100Z 2112/2121 VRB02KT 9999 FEW060
     TEMPO 2112/2117 FEW060CB
     PROB30 TEMPO 2112/2115 02010KT -TSRA SCT050CB SCT060
     BECMG 2117/2119 34006KT CAVOK=
 TAF LZPP 211100Z 2112/2121 34012KT CAVOK
     BECMG 2117/2118 01010KT=
 TAF LZZI 211100Z 2112/2121 02005KT 9999 FEW055
     TEMPO 2112/2116 05010KT SCT055
     BECMG 2117/2119 VRB02KT CAVOK=
 

21.08.2018 - 08:00 UTC

TAF LZSL 210800Z 2109/2118 VRB02KT 9999 FEW050
     TEMPO 2111/2117 02010KT FEW050CB
     PROB30 TEMPO 2112/2115 -TSRA SCT050CB SCT060=
 TAF LZPP 210800Z 2109/2118 35015KT CAVOK
     BECMG 2117/2118 01010KT=
 TAF LZZI 210800Z 2109/2118 08005KT CAVOK
     TEMPO 2110/2114 05010KT 9999 FEW055=
 

21.08.2018 - 05:00 UTC

TAF LZIB 210500Z 2106/2206 VRB02KT CAVOK
     BECMG 2108/2110 01006KT
     BECMG 2118/2120 03010KT=
 TAF LZKZ 210500Z 2106/2206 02005KT CAVOK
     BECMG 2108/2110 35015KT
     TEMPO 2112/2116 9999 FEW050CB=
 TAF LZTT 210500Z 2106/2206 26004KT CAVOK
     BECMG 2106/2108 03007KT 9999 SCT043
     PROB40 TEMPO 2112/2117 06012KT -TSRA SCT050CB SCT055
     BECMG 2118/2120 24004KT CAVOK
     PROB30 2200/2206 VRB02KT 4000 MIFG SCT003=
 

21.08.2018 - 05:00 UTC

TAF LZSL 210500Z 2106/2115 09004KT CAVOK
     TEMPO 2111/2115 9999 FEW050CB=
 TAF LZPP 210500Z 2106/2115 36010KT CAVOK=
 TAF LZZI 210500Z 2106/2115 05004KT CAVOK
     TEMPO 2110/2114 9999 FEW050=
 

21.08.2018 - 02:00 UTC

TAF LZSL 210200Z 2103/2112 02004KT CAVOK
     TEMPO 2103/2105 4000 BCFG FEW002=
 TAF LZZI 210200Z 2103/2112 05004KT CAVOK=